• Join FlightAware (Why Join?)
  • Login
  • US Flag 
02:28PM EDT


 

Airport Tracker/Info


-or-


 

Live Flight TrackerFlight Track Log ✈ ACA831 ✈ 18-Aug-2013 ✈ CYUL - CYYZ

Flight Track Log - Related Links

Times and Time Zones

All times are in EDT time to prevent confusion due to time zone crossing. See the ACA831 flight status page for this flight to view local times or setup timezone preferences in your user account.

Time Position Orientation Groundspeed Altitude Reporting Facility
EDT Latitude Longitude Course Direction KTS MPH feet Rate Location/Type
04:28PM 45.4740 -73.7190 270° West 70 81  Level FlightAware
04:28PM 45.4670 -73.7290 225° Southwest 155 178 1,620 Level FlightAware
04:28PM 45.4480 -73.7520 220° Southwest 174 200 1,400 2,700 Climbing FlightAware
04:29PM 45.4380 -73.7650 222° Southwest 195 224 2,100 3,180 Climbing FlightAware
04:29PM 45.4190 -73.7880 220° Southwest 216 249 3,500 3,000 Climbing FlightAware
04:29PM 45.4070 -73.8130 236° Southwest 232 267 4,300 2,160 Climbing FlightAware
04:29PM 45.4060 -73.8200 259° West 234 269 4,400 1,200 Climbing FlightAware
04:30PM 45.4050 -73.8280 260° West 237 273 4,500 660 Climbing FlightAware
04:30PM 45.4060 -73.8610 272° West 256 295 4,700 360 Climbing FlightAware
04:30PM 45.4070 -73.9030 272° West 256 295 4,800 120 Climbing FlightAware
04:31PM 45.4080 -73.9370 272° West 257 296 4,800  Level FlightAware
04:31PM 45.4090 -73.9700 272° West 257 296 4,800 120 Level FlightAware
04:31PM 45.4090 -74.0040 270° West 258 297 4,900 1,800 Climbing FlightAware
04:32PM 45.4100 -74.0380 272° West 257 296 6,000 3,840 Climbing FlightAware
04:32PM 45.4110 -74.0800 272° West 263 303 7,800 4,500 Climbing FlightAware
04:32PM 45.4110 -74.1070 270° West 266 306 9,000 4,080 Climbing FlightAware
04:33PM 45.4120 -74.1610 272° West 287 330 10,900 2,760 Climbing FlightAware
04:33PM 45.4130 -74.2340 271° West 344 396 12,100 2,820 Climbing FlightAware
04:34PM 45.4150 -74.3290 272° West 368 423 14,500 3,720 Climbing FlightAware
04:35PM 45.4120 -74.4530 268° West 386 444 17,700 3,660 Climbing FlightAware
04:36PM 45.3960 -74.5540 257° West 397 457 20,000 3,240 Climbing FlightAware
04:36PM 45.3830 -74.6330 257° West 413 475 21,500 3,000 Climbing FlightAware
04:37PM 45.3650 -74.7390 256° West 426 490 23,500 2,880 Climbing FlightAware
04:37PM 45.3500 -74.8230 256° West 434 499 24,900 2,820 Climbing FlightAware
04:38PM 45.3340 -74.9180 257° West 439 505 26,600 2,400 Climbing FlightAware
04:38PM 45.3140 -75.0350 256° West 446 513 27,900 1,200 Climbing FlightAware
04:39PM 45.3000 -75.1180 257° West 444 511 28,000 60 Climbing FlightAware
04:40PM 45.2800 -75.2290 256° West 441 507 28,000  Level FlightAware
04:40PM 45.2650 -75.3180 257° West 439 505 28,000  Level FlightAware
04:41PM 45.2480 -75.4140 256° West 439 505 28,000  Level FlightAware
04:41PM 45.2280 -75.5270 256° West 438 504 28,000  Level FlightAware
04:42PM 45.2130 -75.6110 256° West 438 504 28,000  Level FlightAware
04:42PM 45.1960 -75.7050 256° West 438 504 28,000  Level FlightAware
04:43PM 45.1790 -75.7980 255° West 439 505 28,000  Level FlightAware
04:44PM 45.1600 -75.9070 256° West 441 507 28,000  Level FlightAware
04:44PM 45.1470 -75.9790 256° West 441 507 28,000  Level FlightAware
04:45PM 45.1260 -76.0900 255° West 440 506 28,000  Level FlightAware
04:46PM 45.1000 -76.2210 254° West 441 507 28,000  Level FlightAware
04:46PM 45.0740 -76.3000 245° Southwest 442 509 28,000  Level FlightAware
04:47PM 45.0280 -76.4170 241° Southwest 443 510 28,000  Level FlightAware
04:48PM 44.9840 -76.5270 241° Southwest 443 510 28,000  Level FlightAware
04:48PM 44.9490 -76.6140 240° Southwest 444 511 28,000  Level FlightAware
04:49PM 44.9180 -76.6920 241° Southwest 442 509 28,000  Level FlightAware
04:49PM 44.8790 -76.7900 241° Southwest 441 507 28,000  Level FlightAware
04:50PM 44.8430 -76.8780 240° Southwest 441 507 28,000  Level FlightAware
04:51PM 44.8040 -76.9770 241° Southwest 438 504 28,000  Level FlightAware
04:51PM 44.7700 -77.0610 240° Southwest 438 504 28,000  Level FlightAware
04:52PM 44.7330 -77.1530 241° Southwest 438 504 28,000  Level FlightAware
04:52PM 44.6980 -77.2380 240° Southwest 437 503 28,000  Level FlightAware
04:53PM 44.6650 -77.3180 240° Southwest 437 503 28,000  Level FlightAware
04:54PM 44.6290 -77.4080 241° Southwest 436 502 28,000  Level FlightAware
04:54PM 44.5880 -77.5080 240° Southwest 435 501 28,000 -180 Level FlightAware
04:55PM 44.5530 -77.5920 240° Southwest 431 496 27,800 -600 Descending FlightAware
04:55PM 44.5210 -77.6710 240° Southwest 419 482 27,300 -1,080 Descending FlightAware
04:56PM 44.4890 -77.7470 239° Southwest 407 468 26,600 -1,500 Descending FlightAware
04:57PM 44.4490 -77.8450 240° Southwest 411 473 25,500 -1,500 Descending FlightAware
04:57PM 44.4090 -77.9390 239° Southwest 405 466 24,600 -1,380 Descending FlightAware
04:58PM 44.3780 -78.0140 240° Southwest 403 464 23,800 -1,920 Descending FlightAware
04:58PM 44.3430 -78.0960 239° Southwest 399 459 22,400 -2,400 Descending FlightAware
04:59PM 44.3130 -78.1680 240° Southwest 396 456 21,000 -2,400 Descending FlightAware
05:00PM 44.2810 -78.2430 239° Southwest 391 450 19,600 -2,400 Descending FlightAware
05:00PM 44.2470 -78.3260 240° Southwest 384 442 18,200 -2,400 Descending FlightAware
05:01PM 44.2180 -78.3940 239° Southwest 384 442 16,800 -2,460 Descending FlightAware
05:01PM 44.1850 -78.4700 239° Southwest 376 433 15,400 -2,160 Descending FlightAware
05:02PM 44.1570 -78.5360 239° Southwest 370 426 14,300 -2,160 Descending FlightAware
05:02PM 44.1240 -78.6150 240° Southwest 364 419 12,900 -2,280 Descending FlightAware
05:03PM 44.0950 -78.6810 239° Southwest 359 413 11,700 -2,040 Descending FlightAware
05:04PM 44.0670 -78.7460 239° Southwest 354 407 10,500 -1,380 Descending FlightAware
05:04PM 44.0350 -78.8140 237° Southwest 325 374 10,100 -720 Descending FlightAware
05:05PM 44.0150 -78.8460 229° Southwest 313 360 9,900 -540 Descending FlightAware
05:05PM 44.0010 -78.8660 226° Southwest 296 341 9,800 -360 Descending FlightAware
05:05PM 43.9830 -78.8940 228° Southwest 279 321 9,700 -840 Descending FlightAware
05:06PM 43.9620 -78.9260 228° Southwest 271 312 9,200 -1,980 Descending FlightAware
05:06PM 43.9440 -78.9520 226° Southwest 275 316 8,300 -2,100 Descending FlightAware
05:06PM 43.9300 -78.9730 227° Southwest 277 319 7,800 -1,380 Descending FlightAware
05:07PM 43.9120 -78.9990 226° Southwest 268 308 7,400 -1,200 Descending FlightAware
05:07PM 43.8950 -79.0250 228° Southwest 252 290 7,000 -900 Descending FlightAware
05:07PM 43.8790 -79.0490 227° Southwest 240 276 6,800 -420 Descending FlightAware
05:07PM 43.8740 -79.0640 245° Southwest 233 268 6,800 -480 Level FlightAware
05:08PM 43.8710 -79.0840 258° West 224 258 6,600 -720 Descending FlightAware
05:08PM 43.8710 -79.0950 270° West 226 260 6,500 -1,200 Descending FlightAware
05:08PM 43.8710 -79.1280 270° West 229 264 6,000 -960 Descending FlightAware
05:09PM 43.8720 -79.1640 272° West 229 264 5,800 -300 Descending FlightAware
05:09PM 43.8730 -79.1910 273° West 213 245 5,800 -300 Level FlightAware
05:09PM 43.8740 -79.2190 273° West 208 239 5,600 -780 Descending FlightAware
05:10PM 43.8710 -79.2440 261° West 208 239 5,300 -900 Descending FlightAware
05:10PM 43.8690 -79.2610 261° West 205 236 5,100 -1,200 Descending FlightAware
05:10PM 43.8650 -79.3040 263° West 209 241 4,400 -1,320 Descending FlightAware
05:11PM 43.8580 -79.3300 250° West 210 242 4,000 -840 Descending FlightAware
05:11PM 43.8440 -79.3560 233° Southwest 207 238 3,800 -300 Descending FlightAware
05:11PM 43.8290 -79.3780 227° Southwest 209 241 3,800  Level FlightAware
05:12PM 43.8140 -79.4010 228° Southwest 193 222 3,800  Level FlightAware
05:12PM 43.8020 -79.4180 226° Southwest 180 207 3,800 -480 Level FlightAware
05:12PM 43.7910 -79.4340 226° Southwest 176 203 3,500 -960 Descending FlightAware
05:13PM 43.7800 -79.4500 226° Southwest 177 204 3,200 -900 Descending FlightAware
05:13PM 43.7680 -79.4680 227° Southwest 175 201 2,900 -1,080 Descending FlightAware
05:13PM 43.7570 -79.4840 226° Southwest 177 204 2,500 -1,080 Descending FlightAware
05:14PM 43.7460 -79.5000 226° Southwest 173 199 2,200 -780 Descending FlightAware
05:14PM 43.7360 -79.5150 227° Southwest 169 194 2,000 -780 Descending FlightAware
05:14PM 43.7250 -79.5300 225° Southwest 156 180 1,700 -1,080 Descending FlightAware
05:15PM 43.7180 -79.5410 229° Southwest 145 167 1,400 -900 Descending FlightAware
05:15PM 43.7090 -79.5540 226° Southwest 137 158 1,200 -600 Descending FlightAware
05:15PM 43.7000 -79.5670 226° Southwest 137 158 1,000 -720 Descending FlightAware
05:16PM 43.6940 -79.5760 227° Southwest 138 159 800 -720 Descending FlightAware
05:16PM 43.6850 -79.5890 226° Southwest 140 161 600 -300 Descending FlightAware
05:16PM 43.6750 -79.6030 225° Southwest 140 161 600  Level FlightAware